Time;durP1;ratioP1;P1;durP2;ratioP2;P2;SDS_P1;SDS_P2;PMS_P1;PMS_P2;Temp;Humidity;BMP_temperature;BMP_pressure;BME280_temperature;BME280_humidity;BME280_pressure;Samples;Min_cycle;Max_cycle;Signal;HPM_P1;HPM_P2
2023/01/12 15:45:47;;;;;;;18.35;4.00;;;11.20;97.80;;;;;;5099625;27;20402;-65
2023/01/12 15:48:13;;;;;;;30.52;4.00;;;11.70;91.80;;;;;;5104748;28;20073;-75
2023/01/12 15:50:42;;;;;;;31.48;4.53;;;11.70;93.70;;;;;;5092617;28;20088;-67
2023/01/12 15:53:16;;;;;;;23.55;3.35;;;;;;;;;;5095469;28;20079;-66
2023/01/12 15:55:42;;;;;;;19.77;2.90;;;11.70;78.90;;;;;;5103600;28;20035;-68
2023/01/12 15:58:09;;;;;;;16.17;3.38;;;;;;;;;;5100613;28;20024;-67
2023/01/12 16:00:36;;;;;;;23.40;3.20;;;;;;;;;;5089679;28;20492;-68
2023/01/12 16:03:02;;;;;;;17.00;2.67;;;;;;;;;;5093348;28;20088;-69
2023/01/12 16:09:34;;;;;;;14.57;2.33;;;12.60;93.50;;;;;;5040827;27;20367;-69
2023/01/12 16:12:00;;;;;;;18.92;2.70;;;13.10;89.00;;;;;;5084544;28;20072;-67
2023/01/12 16:14:26;;;;;;;;;;;12.60;75.40;;;;;;5092305;28;20075;-68
2023/01/12 16:16:53;;;;;;;14.57;2.55;;;12.70;75.50;;;;;;5066985;28;20014;-68
2023/01/12 16:19:21;;;;;;;19.67;2.50;;;12.80;76.00;;;;;;5077717;28;20088;-68
2023/01/12 16:21:47;;;;;;;20.25;2.58;;;13.00;75.00;;;;;;5064951;28;20076;-67
2023/01/12 16:24:14;;;;;;;11.10;2.20;;;13.10;73.30;;;;;;5038736;28;20065;-67
2023/01/12 16:26:40;;;;;;;;;;;13.30;72.80;;;;;;5055938;28;20066;-67
2023/01/12 16:29:06;;;;;;;13.30;2.13;;;13.50;72.60;;;;;;5059522;28;20341;-72
2023/01/12 16:31:32;;;;;;;12.68;2.67;;;13.70;72.30;;;;;;5070887;28;20072;-66
2023/01/12 16:33:58;;;;;;;;;;;14.00;70.80;;;;;;5078556;28;20079;-68
2023/01/12 16:36:25;;;;;;;21.58;3.17;;;14.20;70.30;;;;;;5034926;28;19958;-66
2023/01/12 16:38:51;;;;;;;;;;;14.50;70.80;;;;;;5092751;28;20591;-69
2023/01/12 16:41:18;;;;;;;13.88;2.40;;;14.70;69.50;;;;;;5082932;28;20426;-67
2023/01/12 16:43:45;;;;;;;15.00;3.22;;;14.90;68.00;;;;;;5042190;28;20133;-69
2023/01/12 16:46:13;;;;;;;26.40;4.20;;;15.20;67.00;;;;;;5072028;28;20085;-64
2023/01/12 16:48:41;;;;;;;26.67;2.97;;;15.40;66.30;;;;;;5057389;28;20096;-66
2023/01/12 16:51:16;;;;;;;22.83;2.35;;;15.60;65.20;;;;;;5071003;28;20115;-67
2023/01/12 16:53:43;;;;;;;21.13;3.05;;;15.90;64.30;;;;;;5056598;28;20148;-68
2023/01/12 16:56:15;;;;;;;12.27;2.47;;;16.20;63.70;;;;;;5085980;28;20072;-67
2023/01/12 16:58:46;;;;;;;20.85;2.67;;;16.50;63.30;;;;;;5052630;28;20099;-67
2023/01/12 17:01:15;;;;;;;19.52;2.58;;;17.10;70.40;;;;;;5053622;28;20082;-64
2023/01/12 17:03:42;;;;;;;23.75;6.93;;;17.00;61.30;;;;;;5074741;28;20076;-68
2023/01/12 17:06:14;;;;;;;20.30;8.85;;;17.20;60.00;;;;;;5062124;28;20096;-69
2023/01/12 17:08:41;;;;;;;21.92;3.95;;;17.40;60.00;;;;;;5055612;28;20200;-65
2023/01/12 17:11:09;;;;;;;15.38;2.40;;;17.50;60.00;;;;;;5059716;28;20103;-67
2023/01/12 17:13:36;;;;;;;14.88;2.60;;;17.70;59.40;;;;;;5055730;28;20456;-65
2023/01/12 17:16:05;;;;;;;9.52;1.88;;;17.80;58.30;;;;;;5033895;28;20165;-67
2023/01/12 17:18:32;;;;;;;15.75;2.42;;;18.10;57.90;;;;;;5053099;28;20631;-66
2023/01/12 17:21:02;;;;;;;15.45;2.28;;;18.50;57.50;;;;;;5060002;28;20071;-70
2023/01/12 17:23:28;;;;;;;15.25;2.28;;;18.70;56.40;;;;;;5025871;28;20080;-68
2023/01/12 17:26:00;;;;;;;22.55;2.33;;;18.90;56.50;;;;;;5044566;28;20098;-65
2023/01/12 17:28:28;;;;;;;14.05;2.25;;;18.70;55.70;;;;;;5037114;28;20074;-67
2023/01/12 17:30:58;;;;;;;10.35;2.08;;;18.90;55.60;;;;;;5032233;28;20080;-64
2023/01/12 17:33:24;;;;;;;9.85;2.35;;;19.30;54.70;;;;;;5073502;28;20155;-64
2023/01/12 17:35:51;;;;;;;51.17;4.07;;;19.40;53.70;;;;;;5045800;28;20526;-66
2023/01/12 17:38:17;;;;;;;17.08;2.47;;;19.70;53.60;;;;;;5048717;28;20101;-63
2023/01/12 17:40:44;;;;;;;10.43;2.00;;;20.00;52.80;;;;;;5056521;28;20155;-65
2023/01/12 17:43:13;;;;;;;19.80;3.05;;;20.20;52.40;;;;;;5091436;28;20154;-65
2023/01/12 17:45:41;;;;;;;12.70;3.83;;;20.00;52.00;;;;;;5087632;28;20083;-64
2023/01/12 17:48:11;;;;;;;12.20;5.95;;;20.20;52.30;;;;;;5091000;28;20144;-64
2023/01/12 17:50:39;;;;;;;14.80;6.30;;;20.10;52.00;;;;;;5064261;28;20099;-63
2023/01/12 17:53:08;;;;;;;10.38;3.33;;;20.60;51.70;;;;;;5054482;28;20091;-65
2023/01/12 17:55:35;;;;;;;14.13;5.13;;;21.10;51.00;;;;;;5036471;28;20080;-67
2023/01/12 17:58:03;;;;;;;14.23;4.10;;;21.30;50.40;;;;;;5053345;28;20097;-67
2023/01/12 18:00:30;;;;;;;18.80;4.18;;;20.90;50.80;;;;;;5058794;28;20150;-67
2023/01/12 18:02:57;;;;;;;12.52;3.10;;;21.10;50.40;;;;;;5033474;28;20075;-68
2023/01/12 18:05:26;;;;;;;10.82;2.53;;;21.10;72.90;;;;;;5055868;28;20073;-65
2023/01/12 18:07:53;;;;;;;19.35;2.40;;;20.90;50.80;;;;;;5029748;28;20626;-68
2023/01/12 18:10:19;;;;;;;18.35;2.20;;;21.20;50.40;;;;;;5050451;28;20168;-69
2023/01/12 18:12:46;;;;;;;15.32;1.85;;;21.80;50.80;;;;;;5043472;28;20089;-67
2023/01/12 18:15:12;;;;;;;11.30;2.90;;;22.20;50.50;;;;;;5042631;28;20133;-70
2023/01/12 18:17:39;;;;;;;8.00;1.80;;;22.40;49.90;;;;;;5065316;28;20133;-70
2023/01/12 18:20:06;;;;;;;13.25;1.90;;;22.60;50.20;;;;;;5053003;28;20063;-72
2023/01/12 18:22:32;;;;;;;9.00;2.53;;;22.70;49.50;;;;;;5043411;28;20071;-65
2023/01/12 18:24:59;;;;;;;14.00;1.75;;;22.90;49.60;;;;;;5066217;28;20142;-69
2023/01/12 18:27:25;;;;;;;16.73;2.45;;;23.10;48.00;;;;;;5040779;28;20081;-68
2023/01/12 18:29:52;;;;;;;7.95;1.38;;;23.30;49.00;;;;;;5047206;28;20077;-69
2023/01/12 18:32:18;;;;;;;7.30;2.00;;;23.20;48.30;;;;;;5047568;28;20136;-68
2023/01/12 18:34:48;;;;;;;10.85;1.80;;;23.30;47.40;;;;;;5030548;28;20083;-70
2023/01/12 18:37:15;;;;;;;9.95;2.80;;;23.00;48.90;;;;;;5073240;28;20072;-68
2023/01/12 18:39:42;;;;;;;10.18;1.80;;;23.20;48.90;;;;;;5075004;28;20074;-67
2023/01/12 18:44:56;;;;;;;4.03;1.45;;;23.90;46.20;;;;;;5079225;28;20592;-69
2023/01/12 18:55:38;;;;;;;2.75;1.00;;;24.10;42.90;;;;;;5031546;28;20094;-67
2023/01/12 18:58:05;;;;;;;5.30;1.40;;;24.20;43.90;;;;;;5030261;28;20077;-66
2023/01/12 19:00:31;;;;;;;4.80;1.00;;;24.20;53.70;;;;;;5037920;28;20055;-67
2023/01/12 19:02:58;;;;;;;8.88;2.30;;;24.20;43.50;;;;;;5039316;28;20073;-67
2023/01/12 19:05:35;;;;;;;5.20;1.48;;;24.30;43.30;;;;;;5035355;28;20081;-69
2023/01/12 19:09:33;;;;;;;;;;;24.10;43.50;;;;;;5068095;28;20479;-65
2023/01/12 19:10:47;;;;;;;2.80;1.20;;;23.80;42.00;;;;;;5052119;28;20071;-65
2023/01/12 19:18:43;;;;;;;4.80;1.20;;;24.20;64.70;;;;;;5059723;28;20603;-67
2023/01/12 19:29:24;;;;;;;4.50;1.13;;;23.50;43.30;;;;;;5045893;28;20110;-64
2023/01/12 19:31:51;;;;;;;5.18;1.77;;;23.20;44.00;;;;;;5050219;28;20477;-64
2023/01/12 19:34:17;;;;;;;7.38;1.42;;;22.90;44.30;;;;;;5051281;28;20075;-64
2023/01/12 19:36:44;;;;;;;4.88;1.23;;;22.80;45.60;;;;;;5048829;28;20065;-66
2023/01/12 19:39:11;;;;;;;5.18;1.30;;;22.80;46.20;;;;;;5049246;28;20078;-66
2023/01/12 19:44:22;;;;;;;8.38;1.52;;;22.50;47.20;;;;;;5050847;28;20118;-64
2023/01/12 19:46:49;;;;;;;3.97;1.52;;;22.30;48.00;;;;;;5071762;28;20085;-64
2023/01/12 19:49:16;;;;;;;5.35;1.05;;;22.40;47.60;;;;;;5060007;28;20551;-64
2023/01/12 19:51:44;;;;;;;9.57;2.03;;;22.50;46.50;;;;;;5048523;28;20543;-66
2023/01/12 19:54:11;;;;;;;5.78;1.08;;;22.50;47.10;;;;;;5036188;28;20093;-65
2023/01/12 19:56:37;;;;;;;5.30;1.08;;;22.40;47.60;;;;;;5032310;28;20074;-66
2023/01/12 19:59:04;;;;;;;4.88;1.00;;;22.30;47.90;;;;;;5048661;28;20137;-66
2023/01/12 20:01:33;;;;;;;2.53;0.77;;;22.30;47.30;;;;;;5030814;28;20092;-65
2023/01/12 20:04:00;;;;;;;5.35;0.95;;;22.30;46.40;;;;;;5035905;28;20042;-67
2023/01/12 20:06:26;;;;;;;9.63;1.67;;;22.10;46.80;;;;;;5051021;28;20076;-65
2023/01/12 20:08:54;;;;;;;7.68;1.50;;;22.10;47.30;;;;;;5058240;28;20113;-65
2023/01/12 20:11:20;;;;;;;4.13;1.10;;;22.20;47.70;;;;;;5032084;28;20168;-65
2023/01/12 20:13:46;;;;;;;7.40;1.20;;;22.20;46.10;;;;;;5029573;28;20184;-65
2023/01/12 20:16:13;;;;;;;5.40;1.77;;;22.20;46.00;;;;;;5032510;28;20085;-65
2023/01/12 20:18:42;;;;;;;9.43;2.53;;;22.30;46.50;;;;;;5053306;28;20536;-65
2023/01/12 20:21:09;;;;;;;3.05;1.00;;;22.20;46.70;;;;;;5048011;28;20120;-66
2023/01/12 20:23:36;;;;;;;6.63;1.30;;;22.10;46.90;;;;;;5035880;28;20070;-66
2023/01/12 20:26:06;;;;;;;4.40;1.40;;;22.20;47.90;;;;;;5049268;28;20074;-66
2023/01/12 20:28:33;;;;;;;5.13;1.92;;;22.40;47.00;;;;;;5040249;28;20073;-64
2023/01/12 20:30:59;;;;;;;5.25;1.27;;;22.60;47.20;;;;;;5055902;28;20549;-65
2023/01/12 20:33:27;;;;;;;7.40;3.78;;;22.60;47.10;;;;;;5055799;28;20106;-63
2023/01/12 20:35:53;;;;;;;8.35;3.83;;;22.70;46.30;;;;;;5032981;28;20434;-64
2023/01/12 20:38:21;;;;;;;15.00;10.68;;;22.70;45.30;;;;;;5060887;28;20145;-61
2023/01/12 20:40:48;;;;;;;16.17;10.65;;;22.70;44.70;;;;;;5049060;28;20064;-64
2023/01/12 20:43:14;;;;;;;5.30;1.45;;;22.60;44.90;;;;;;5013492;28;20071;-66
2023/01/12 20:45:41;;;;;;;8.77;3.60;;;22.50;44.30;;;;;;5038601;28;20424;-66
2023/01/12 20:48:08;;;;;;;3.42;1.10;;;22.50;43.20;;;;;;5039441;28;20083;-65
2023/01/12 20:50:34;;;;;;;10.02;2.08;;;22.50;44.70;;;;;;5044176;28;20530;-66
2023/01/12 20:53:01;;;;;;;3.00;1.45;;;22.50;47.00;;;;;;5030628;28;20091;-66
2023/01/12 20:55:28;;;;;;;8.80;1.90;;;22.30;47.90;;;;;;5035433;28;20075;-65
2023/01/12 20:57:54;;;;;;;4.80;1.40;;;22.20;47.90;;;;;;5030752;28;20138;-66
2023/01/12 21:00:20;;;;;;;5.82;1.80;;;22.10;47.20;;;;;;5031939;28;20107;-65
2023/01/12 21:02:47;;;;;;;7.30;1.83;;;22.10;46.90;;;;;;5046495;28;20141;-65
2023/01/12 21:05:13;;;;;;;4.63;1.50;;;22.20;47.10;;;;;;5035292;28;20074;-65
2023/01/12 21:07:40;;;;;;;6.43;0.90;;;22.10;46.60;;;;;;5027165;28;20120;-66
2023/01/12 21:10:07;;;;;;;5.47;1.38;;;22.10;46.60;;;;;;5026921;28;20084;-67
2023/01/12 21:12:34;;;;;;;7.95;1.98;;;22.10;47.50;;;;;;5035368;28;20467;-67
2023/01/12 21:15:00;;;;;;;4.03;1.05;;;22.00;48.60;;;;;;5038608;28;20114;-70
2023/01/12 21:17:27;;;;;;;5.63;1.40;;;22.00;48.60;;;;;;5057593;28;20079;-67
2023/01/12 21:19:53;;;;;;;4.57;1.35;;;21.80;47.90;;;;;;5042084;28;20063;-67
2023/01/12 21:22:20;;;;;;;5.80;1.23;;;21.80;48.30;;;;;;5062314;28;20067;-65
2023/01/12 21:24:46;;;;;;;6.00;1.35;;;21.80;48.30;;;;;;5062203;28;20145;-67
2023/01/12 21:27:12;;;;;;;7.82;2.45;;;21.80;48.10;;;;;;5038061;28;20055;-64
2023/01/12 21:29:39;;;;;;;3.65;1.35;;;21.70;49.00;;;;;;5038447;28;20575;-65
2023/01/12 21:32:05;;;;;;;7.82;3.30;;;21.70;48.50;;;;;;5050772;28;21458;-65
2023/01/12 21:34:32;;;;;;;5.22;1.10;;;21.80;48.50;;;;;;5044269;28;20134;-64
2023/01/12 21:36:58;;;;;;;3.80;1.60;;;21.80;48.20;;;;;;5044721;28;20075;-65
2023/01/12 21:39:25;;;;;;;6.15;1.30;;;21.90;48.10;;;;;;5073459;28;20187;-64
2023/01/12 21:44:36;;;;;;;11.25;10.15;;;21.80;48.30;;;;;;5048721;28;20135;-65
2023/01/12 21:47:02;;;;;;;5.72;2.40;;;21.90;48.00;;;;;;5056844;28;20089;-65
2023/01/12 21:49:28;;;;;;;2.85;1.20;;;21.80;48.00;;;;;;5056848;28;20532;-65
2023/01/12 21:51:55;;;;;;;12.30;1.40;;;21.70;48.40;;;;;;5073363;28;20067;-65
2023/01/12 21:54:21;;;;;;;3.85;2.55;;;21.80;48.80;;;;;;5040708;28;20078;-66
2023/01/12 21:56:48;;;;;;;5.75;1.33;;;21.70;49.20;;;;;;5052588;28;20100;-64
2023/01/12 21:59:14;;;;;;;9.88;7.10;;;21.70;49.10;;;;;;5032306;28;20119;-64
2023/01/12 22:01:41;;;;;;;7.70;1.40;;;21.70;49.30;;;;;;5026851;28;20086;-65
2023/01/12 22:04:07;;;;;;;11.25;1.52;;;21.70;49.50;;;;;;5041048;28;20072;-65
2023/01/12 22:06:33;;;;;;;5.00;1.20;;;21.50;49.80;;;;;;5022406;28;20410;-69
2023/01/12 22:09:00;;;;;;;6.00;1.20;;;21.50;50.30;;;;;;5042400;28;20111;-66
2023/01/12 22:11:26;;;;;;;10.88;2.38;;;21.60;49.50;;;;;;5035506;28;20073;-65
2023/01/12 22:13:52;;;;;;;6.10;1.45;;;21.50;49.30;;;;;;5031978;28;20088;-66
2023/01/12 22:16:19;;;;;;;3.17;1.00;;;21.40;48.80;;;;;;5038965;28;20644;-64
2023/01/12 22:18:51;;;;;;;7.65;2.05;;;21.40;48.80;;;;;;5034831;28;20115;-63
2023/01/12 22:21:20;;;;;;;9.27;1.40;;;21.40;48.70;;;;;;5029054;28;20497;-64
2023/01/12 22:23:46;;;;;;;6.50;2.35;;;21.30;48.20;;;;;;5037807;28;20086;-65
2023/01/12 22:26:14;;;;;;;6.65;1.20;;;21.20;48.60;;;;;;5030937;28;20526;-66
2023/01/12 22:28:42;;;;;;;8.77;1.42;;;21.20;48.90;;;;;;5035907;28;20092;-64
2023/01/12 22:31:10;;;;;;;10.38;1.45;;;21.20;47.90;;;;;;5040018;28;20083;-64
2023/01/12 22:33:37;;;;;;;9.48;1.50;;;21.20;46.80;;;;;;5037553;28;20073;-65
2023/01/12 22:36:05;;;;;;;10.77;1.30;;;21.20;47.30;;;;;;5032242;28;20101;-64
2023/01/12 22:38:32;;;;;;;7.10;1.10;;;21.20;46.90;;;;;;5065399;28;20578;-66
2023/01/12 22:41:06;;;;;;;9.52;1.30;;;21.20;46.60;;;;;;5045115;28;20169;-66
2023/01/12 22:43:39;;;;;;;4.93;1.33;;;21.30;46.70;;;;;;5062795;28;20106;-66
2023/01/12 22:46:19;;;;;;;7.57;1.10;;;21.30;46.40;;;;;;5022369;28;20066;-66
2023/01/12 22:48:50;;;;;;;6.70;1.35;;;21.30;46.60;;;;;;5020475;28;20176;-65
2023/01/12 22:51:19;;;;;;;4.30;1.10;;;21.40;46.50;;;;;;5041178;28;20125;-66
2023/01/12 22:53:46;;;;;;;7.15;1.23;;;21.30;46.50;;;;;;5034325;28;20073;-65
2023/01/12 22:56:13;;;;;;;5.07;1.15;;;21.30;46.00;;;;;;5040320;28;20462;-66
2023/01/12 22:58:44;;;;;;;5.78;1.05;;;21.30;45.90;;;;;;5018391;28;20143;-66
2023/01/12 23:01:10;;;;;;;4.75;1.00;;;21.20;46.00;;;;;;5023316;28;20450;-68
2023/01/12 23:03:37;;;;;;;6.45;1.50;;;21.20;46.50;;;;;;5030847;28;20041;-66
2023/01/12 23:06:05;;;;;;;17.55;10.70;;;21.20;46.50;;;;;;5048400;28;20022;-66
2023/01/12 23:08:32;;;;;;;7.22;2.00;;;21.20;46.50;;;;;;5041332;28;21603;-66
2023/01/12 23:11:07;;;;;;;9.30;1.73;;;21.20;46.30;;;;;;5030391;28;20105;-66
2023/01/12 23:13:34;;;;;;;7.57;1.33;;;21.10;46.60;;;;;;5032586;28;20028;-64
2023/01/12 23:16:06;;;;;;;16.23;1.50;;;21.00;46.40;;;;;;5038894;28;20086;-65
2023/01/12 23:18:34;;;;;;;5.63;2.13;;;21.10;46.90;;;;;;5022595;28;20121;-64
2023/01/12 23:21:12;;;;;;;6.78;2.00;;;21.10;45.50;;;;;;5026162;28;20078;-67
2023/01/12 23:23:44;;;;;;;6.95;1.50;;;21.10;44.80;;;;;;5040396;28;20083;-65
2023/01/12 23:26:13;;;;;;;4.45;1.45;;;21.00;44.40;;;;;;5032574;28;20089;-65
2023/01/12 23:28:46;;;;;;;8.68;1.80;;;20.90;44.40;;;;;;5037386;28;20159;-66
2023/01/12 23:31:15;;;;;;;12.65;1.67;;;20.80;44.30;;;;;;5033933;28;20593;-65
2023/01/12 23:33:42;;;;;;;3.65;1.20;;;20.80;45.00;;;;;;5047050;28;20112;-67
2023/01/12 23:36:12;;;;;;;5.93;1.02;;;20.60;43.90;;;;;;5039730;28;20125;-64
2023/01/12 23:38:38;;;;;;;10.90;1.23;;;20.80;44.30;;;;;;5058730;28;20076;-63
2023/01/12 23:41:17;;;;;;;12.05;1.40;;;20.80;44.80;;;;;;5066017;28;20102;-65
2023/01/12 23:43:44;;;;;;;6.05;1.20;;;20.80;44.70;;;;;;5059421;28;20067;-68
2023/01/12 23:46:11;;;;;;;4.13;1.15;;;20.60;62.70;;;;;;5043815;28;20122;-64
2023/01/12 23:48:38;;;;;;;12.82;1.40;;;20.90;44.60;;;;;;5055499;28;20466;-64
2023/01/12 23:51:05;;;;;;;5.97;1.52;;;20.80;44.90;;;;;;5053429;28;20069;-66
2023/01/12 23:53:32;;;;;;;11.02;1.67;;;20.80;44.90;;;;;;5046416;28;20149;-66
2023/01/12 23:56:10;;;;;;;5.28;0.98;;;20.80;45.00;;;;;;5048902;28;20108;-68
2023/01/12 23:58:37;;;;;;;5.28;1.00;;;20.70;45.00;;;;;;5033526;28;20168;-65
